sensor_id;sensor_type;location;lat;lon;timestamp;P1;durP1;ratioP1;P2;durP2;ratioP2
6282;SDS011;3174;53.486;9.568;2023-05-10T00:01:45;2.23;;;1.80;;
6282;SDS011;3174;53.486;9.568;2023-05-10T00:04:13;1.87;;;1.50;;
6282;SDS011;3174;53.486;9.568;2023-05-10T00:06:41;2.63;;;1.80;;
6282;SDS011;3174;53.486;9.568;2023-05-10T00:09:09;3.17;;;2.20;;
6282;SDS011;3174;53.486;9.568;2023-05-10T00:11:38;3.00;;;1.77;;
6282;SDS011;3174;53.486;9.568;2023-05-10T00:14:06;2.50;;;1.70;;
6282;SDS011;3174;53.486;9.568;2023-05-10T00:16:34;3.13;;;1.77;;
6282;SDS011;3174;53.486;9.568;2023-05-10T00:19:02;2.63;;;2.10;;
6282;SDS011;3174;53.486;9.568;2023-05-10T00:21:30;4.20;;;1.53;;
6282;SDS011;3174;53.486;9.568;2023-05-10T00:24:00;1.87;;;1.57;;
6282;SDS011;3174;53.486;9.568;2023-05-10T00:26:27;2.73;;;1.77;;
6282;SDS011;3174;53.486;9.568;2023-05-10T00:28:57;2.77;;;1.87;;
6282;SDS011;3174;53.486;9.568;2023-05-10T00:31:25;2.43;;;1.80;;
6282;SDS011;3174;53.486;9.568;2023-05-10T00:33:53;2.50;;;1.93;;
6282;SDS011;3174;53.486;9.568;2023-05-10T00:36:21;2.70;;;1.80;;
6282;SDS011;3174;53.486;9.568;2023-05-10T00:38:49;2.30;;;1.77;;
6282;SDS011;3174;53.486;9.568;2023-05-10T00:41:17;3.27;;;1.83;;
6282;SDS011;3174;53.486;9.568;2023-05-10T00:43:45;2.00;;;1.70;;
6282;SDS011;3174;53.486;9.568;2023-05-10T00:46:14;1.90;;;1.70;;
6282;SDS011;3174;53.486;9.568;2023-05-10T00:48:43;2.93;;;2.00;;
6282;SDS011;3174;53.486;9.568;2023-05-10T00:51:11;4.13;;;2.00;;
6282;SDS011;3174;53.486;9.568;2023-05-10T00:53:40;2.70;;;1.70;;
6282;SDS011;3174;53.486;9.568;2023-05-10T00:56:08;2.87;;;1.60;;
6282;SDS011;3174;53.486;9.568;2023-05-10T00:58:36;2.87;;;1.90;;
6282;SDS011;3174;53.486;9.568;2023-05-10T01:01:04;2.23;;;1.60;;
6282;SDS011;3174;53.486;9.568;2023-05-10T01:03:34;3.50;;;1.90;;
6282;SDS011;3174;53.486;9.568;2023-05-10T01:06:02;2.57;;;1.80;;
6282;SDS011;3174;53.486;9.568;2023-05-10T01:08:30;2.63;;;1.90;;
6282;SDS011;3174;53.486;9.568;2023-05-10T01:10:58;2.17;;;1.87;;
6282;SDS011;3174;53.486;9.568;2023-05-10T01:13:30;2.37;;;1.80;;
6282;SDS011;3174;53.486;9.568;2023-05-10T01:15:59;2.77;;;1.80;;
6282;SDS011;3174;53.486;9.568;2023-05-10T01:18:29;2.13;;;1.73;;
6282;SDS011;3174;53.486;9.568;2023-05-10T01:21:00;3.57;;;1.90;;
6282;SDS011;3174;53.486;9.568;2023-05-10T01:26:36;3.77;;;1.77;;
6282;SDS011;3174;53.486;9.568;2023-05-10T01:29:18;2.23;;;1.63;;
6282;SDS011;3174;53.486;9.568;2023-05-10T01:34:52;2.43;;;1.70;;
6282;SDS011;3174;53.486;9.568;2023-05-10T01:37:25;1.90;;;1.50;;
6282;SDS011;3174;53.486;9.568;2023-05-10T01:40:00;3.00;;;1.97;;
6282;SDS011;3174;53.486;9.568;2023-05-10T01:42:35;3.47;;;1.70;;
6282;SDS011;3174;53.486;9.568;2023-05-10T01:45:08;2.03;;;1.80;;
6282;SDS011;3174;53.486;9.568;2023-05-10T01:47:41;3.13;;;1.93;;
6282;SDS011;3174;53.486;9.568;2023-05-10T01:50:12;2.13;;;1.70;;
6282;SDS011;3174;53.486;9.568;2023-05-10T01:52:44;2.63;;;2.13;;
6282;SDS011;3174;53.486;9.568;2023-05-10T01:55:18;2.20;;;2.00;;
6282;SDS011;3174;53.486;9.568;2023-05-10T01:57:48;3.40;;;1.90;;
6282;SDS011;3174;53.486;9.568;2023-05-10T02:00:18;2.57;;;2.00;;
6282;SDS011;3174;53.486;9.568;2023-05-10T02:02:49;2.30;;;2.00;;
6282;SDS011;3174;53.486;9.568;2023-05-10T02:05:17;2.80;;;1.90;;
6282;SDS011;3174;53.486;9.568;2023-05-10T02:07:45;3.03;;;1.90;;
6282;SDS011;3174;53.486;9.568;2023-05-10T02:10:14;3.40;;;1.70;;
6282;SDS011;3174;53.486;9.568;2023-05-10T02:12:44;2.20;;;1.90;;
6282;SDS011;3174;53.486;9.568;2023-05-10T02:15:15;3.10;;;2.33;;
6282;SDS011;3174;53.486;9.568;2023-05-10T02:17:46;4.67;;;2.00;;
6282;SDS011;3174;53.486;9.568;2023-05-10T02:20:16;2.00;;;1.73;;
6282;SDS011;3174;53.486;9.568;2023-05-10T02:22:45;3.30;;;2.10;;
6282;SDS011;3174;53.486;9.568;2023-05-10T02:25:13;5.43;;;1.90;;
6282;SDS011;3174;53.486;9.568;2023-05-10T02:27:41;3.57;;;2.10;;
6282;SDS011;3174;53.486;9.568;2023-05-10T02:30:10;3.63;;;2.07;;
6282;SDS011;3174;53.486;9.568;2023-05-10T02:32:39;3.90;;;2.10;;
6282;SDS011;3174;53.486;9.568;2023-05-10T02:35:08;2.43;;;1.87;;
6282;SDS011;3174;53.486;9.568;2023-05-10T02:37:37;2.70;;;1.90;;
6282;SDS011;3174;53.486;9.568;2023-05-10T02:40:06;2.53;;;2.13;;
6282;SDS011;3174;53.486;9.568;2023-05-10T02:42:36;3.77;;;1.90;;
6282;SDS011;3174;53.486;9.568;2023-05-10T02:45:07;4.47;;;1.90;;
6282;SDS011;3174;53.486;9.568;2023-05-10T02:47:36;3.20;;;1.93;;
6282;SDS011;3174;53.486;9.568;2023-05-10T02:50:04;2.67;;;2.00;;
6282;SDS011;3174;53.486;9.568;2023-05-10T02:52:36;2.83;;;2.03;;
6282;SDS011;3174;53.486;9.568;2023-05-10T02:55:11;4.43;;;2.17;;
6282;SDS011;3174;53.486;9.568;2023-05-10T02:57:41;3.07;;;2.40;;
6282;SDS011;3174;53.486;9.568;2023-05-10T03:00:13;3.27;;;2.30;;
6282;SDS011;3174;53.486;9.568;2023-05-10T03:02:42;6.03;;;2.20;;
6282;SDS011;3174;53.486;9.568;2023-05-10T03:05:10;3.67;;;2.97;;
6282;SDS011;3174;53.486;9.568;2023-05-10T03:07:38;2.67;;;2.03;;
6282;SDS011;3174;53.486;9.568;2023-05-10T03:10:08;2.63;;;1.93;;
6282;SDS011;3174;53.486;9.568;2023-05-10T03:12:43;2.63;;;1.93;;
6282;SDS011;3174;53.486;9.568;2023-05-10T03:15:22;3.10;;;1.87;;
6282;SDS011;3174;53.486;9.568;2023-05-10T03:17:56;2.40;;;1.90;;
6282;SDS011;3174;53.486;9.568;2023-05-10T03:20:29;2.20;;;1.90;;
6282;SDS011;3174;53.486;9.568;2023-05-10T03:23:02;2.73;;;2.10;;
6282;SDS011;3174;53.486;9.568;2023-05-10T03:25:33;2.73;;;2.10;;
6282;SDS011;3174;53.486;9.568;2023-05-10T03:28:01;3.07;;;2.03;;
6282;SDS011;3174;53.486;9.568;2023-05-10T03:30:31;3.23;;;2.20;;
6282;SDS011;3174;53.486;9.568;2023-05-10T03:33:03;3.03;;;2.43;;
6282;SDS011;3174;53.486;9.568;2023-05-10T03:35:32;6.30;;;2.40;;
6282;SDS011;3174;53.486;9.568;2023-05-10T03:38:00;3.83;;;2.27;;
6282;SDS011;3174;53.486;9.568;2023-05-10T03:40:28;4.13;;;2.67;;
6282;SDS011;3174;53.486;9.568;2023-05-10T03:42:59;3.10;;;2.17;;
6282;SDS011;3174;53.486;9.568;2023-05-10T03:45:27;2.47;;;2.20;;
6282;SDS011;3174;53.486;9.568;2023-05-10T03:47:55;2.80;;;2.50;;
6282;SDS011;3174;53.486;9.568;2023-05-10T03:50:23;3.30;;;2.40;;
6282;SDS011;3174;53.486;9.568;2023-05-10T03:52:51;3.23;;;2.30;;
6282;SDS011;3174;53.486;9.568;2023-05-10T03:55:20;2.70;;;2.17;;
6282;SDS011;3174;53.486;9.568;2023-05-10T03:57:48;3.00;;;2.03;;
6282;SDS011;3174;53.486;9.568;2023-05-10T04:00:18;3.37;;;2.20;;
6282;SDS011;3174;53.486;9.568;2023-05-10T04:02:46;4.30;;;2.20;;
6282;SDS011;3174;53.486;9.568;2023-05-10T04:05:14;3.33;;;2.33;;
6282;SDS011;3174;53.486;9.568;2023-05-10T04:07:42;2.60;;;2.10;;
6282;SDS011;3174;53.486;9.568;2023-05-10T04:10:11;2.57;;;2.30;;
6282;SDS011;3174;53.486;9.568;2023-05-10T04:12:39;4.53;;;2.30;;
6282;SDS011;3174;53.486;9.568;2023-05-10T04:15:07;2.80;;;2.17;;
6282;SDS011;3174;53.486;9.568;2023-05-10T04:17:37;2.40;;;2.00;;
6282;SDS011;3174;53.486;9.568;2023-05-10T04:20:06;2.63;;;2.00;;
6282;SDS011;3174;53.486;9.568;2023-05-10T04:22:34;3.23;;;2.47;;
6282;SDS011;3174;53.486;9.568;2023-05-10T04:25:03;2.80;;;2.20;;
6282;SDS011;3174;53.486;9.568;2023-05-10T04:27:31;3.20;;;2.27;;
6282;SDS011;3174;53.486;9.568;2023-05-10T04:29:59;3.70;;;2.30;;
6282;SDS011;3174;53.486;9.568;2023-05-10T04:32:27;3.03;;;2.37;;
6282;SDS011;3174;53.486;9.568;2023-05-10T04:34:56;2.73;;;2.17;;
6282;SDS011;3174;53.486;9.568;2023-05-10T04:37:24;3.97;;;2.40;;
6282;SDS011;3174;53.486;9.568;2023-05-10T04:39:52;2.87;;;2.10;;
6282;SDS011;3174;53.486;9.568;2023-05-10T04:42:20;2.90;;;2.07;;
6282;SDS011;3174;53.486;9.568;2023-05-10T04:44:48;4.00;;;2.53;;
6282;SDS011;3174;53.486;9.568;2023-05-10T04:47:16;3.87;;;2.10;;
6282;SDS011;3174;53.486;9.568;2023-05-10T04:49:44;3.97;;;2.10;;
6282;SDS011;3174;53.486;9.568;2023-05-10T04:52:13;3.83;;;2.13;;
6282;SDS011;3174;53.486;9.568;2023-05-10T04:54:43;4.40;;;2.83;;
6282;SDS011;3174;53.486;9.568;2023-05-10T04:57:11;2.77;;;2.13;;
6282;SDS011;3174;53.486;9.568;2023-05-10T04:59:39;3.43;;;2.40;;
6282;SDS011;3174;53.486;9.568;2023-05-10T05:02:07;6.37;;;2.67;;
6282;SDS011;3174;53.486;9.568;2023-05-10T05:04:35;2.90;;;2.30;;
6282;SDS011;3174;53.486;9.568;2023-05-10T05:07:03;3.20;;;2.27;;
6282;SDS011;3174;53.486;9.568;2023-05-10T05:09:32;2.87;;;1.93;;
6282;SDS011;3174;53.486;9.568;2023-05-10T05:12:00;2.33;;;2.10;;
6282;SDS011;3174;53.486;9.568;2023-05-10T05:14:28;3.00;;;2.00;;
6282;SDS011;3174;53.486;9.568;2023-05-10T05:16:56;3.73;;;2.33;;
6282;SDS011;3174;53.486;9.568;2023-05-10T05:19:24;2.97;;;2.20;;
6282;SDS011;3174;53.486;9.568;2023-05-10T05:21:52;3.60;;;2.90;;
6282;SDS011;3174;53.486;9.568;2023-05-10T05:24:20;2.90;;;2.23;;
6282;SDS011;3174;53.486;9.568;2023-05-10T05:26:49;3.80;;;2.70;;
6282;SDS011;3174;53.486;9.568;2023-05-10T05:29:17;4.83;;;2.30;;
6282;SDS011;3174;53.486;9.568;2023-05-10T05:31:45;2.67;;;2.33;;
6282;SDS011;3174;53.486;9.568;2023-05-10T05:34:13;3.63;;;2.77;;
6282;SDS011;3174;53.486;9.568;2023-05-10T05:36:41;3.47;;;2.30;;
6282;SDS011;3174;53.486;9.568;2023-05-10T05:39:09;3.97;;;2.77;;
6282;SDS011;3174;53.486;9.568;2023-05-10T05:41:37;3.40;;;2.23;;
6282;SDS011;3174;53.486;9.568;2023-05-10T05:44:06;4.07;;;2.50;;
6282;SDS011;3174;53.486;9.568;2023-05-10T05:46:34;3.23;;;2.40;;
6282;SDS011;3174;53.486;9.568;2023-05-10T05:49:02;4.90;;;3.00;;
6282;SDS011;3174;53.486;9.568;2023-05-10T05:51:30;4.03;;;3.00;;
6282;SDS011;3174;53.486;9.568;2023-05-10T05:53:58;3.20;;;2.80;;
6282;SDS011;3174;53.486;9.568;2023-05-10T05:56:26;4.10;;;3.07;;
6282;SDS011;3174;53.486;9.568;2023-05-10T05:58:54;2.80;;;2.40;;
6282;SDS011;3174;53.486;9.568;2023-05-10T06:01:23;3.70;;;2.67;;
6282;SDS011;3174;53.486;9.568;2023-05-10T06:03:51;3.60;;;2.57;;
6282;SDS011;3174;53.486;9.568;2023-05-10T06:06:19;8.27;;;2.90;;
6282;SDS011;3174;53.486;9.568;2023-05-10T06:08:47;3.97;;;2.47;;
6282;SDS011;3174;53.486;9.568;2023-05-10T06:11:15;6.10;;;2.97;;
6282;SDS011;3174;53.486;9.568;2023-05-10T06:13:43;4.10;;;3.00;;
6282;SDS011;3174;53.486;9.568;2023-05-10T06:16:11;4.30;;;2.73;;
6282;SDS011;3174;53.486;9.568;2023-05-10T06:18:41;7.50;;;3.33;;
6282;SDS011;3174;53.486;9.568;2023-05-10T06:21:09;4.70;;;2.37;;
6282;SDS011;3174;53.486;9.568;2023-05-10T06:23:37;5.63;;;2.60;;
6282;SDS011;3174;53.486;9.568;2023-05-10T06:26:05;5.40;;;2.57;;
6282;SDS011;3174;53.486;9.568;2023-05-10T06:28:33;7.40;;;2.77;;
6282;SDS011;3174;53.486;9.568;2023-05-10T06:31:01;3.80;;;2.80;;
6282;SDS011;3174;53.486;9.568;2023-05-10T06:33:29;3.50;;;2.40;;
6282;SDS011;3174;53.486;9.568;2023-05-10T06:35:58;4.43;;;2.93;;
6282;SDS011;3174;53.486;9.568;2023-05-10T06:38:27;6.00;;;2.93;;
6282;SDS011;3174;53.486;9.568;2023-05-10T06:40:54;4.93;;;2.70;;
6282;SDS011;3174;53.486;9.568;2023-05-10T06:43:23;3.13;;;2.43;;
6282;SDS011;3174;53.486;9.568;2023-05-10T06:45:52;3.57;;;2.50;;
6282;SDS011;3174;53.486;9.568;2023-05-10T06:48:20;3.57;;;2.40;;
6282;SDS011;3174;53.486;9.568;2023-05-10T06:50:48;2.73;;;2.37;;
6282;SDS011;3174;53.486;9.568;2023-05-10T06:53:17;4.20;;;2.70;;
6282;SDS011;3174;53.486;9.568;2023-05-10T06:55:45;3.47;;;2.60;;
6282;SDS011;3174;53.486;9.568;2023-05-10T06:58:13;3.60;;;2.67;;
6282;SDS011;3174;53.486;9.568;2023-05-10T07:00:42;3.20;;;2.43;;
6282;SDS011;3174;53.486;9.568;2023-05-10T07:03:11;5.97;;;2.50;;
6282;SDS011;3174;53.486;9.568;2023-05-10T07:05:39;5.60;;;2.70;;
6282;SDS011;3174;53.486;9.568;2023-05-10T07:08:07;4.03;;;2.40;;
6282;SDS011;3174;53.486;9.568;2023-05-10T07:10:37;3.10;;;2.80;;
6282;SDS011;3174;53.486;9.568;2023-05-10T07:13:05;8.30;;;2.87;;
6282;SDS011;3174;53.486;9.568;2023-05-10T07:15:33;3.90;;;2.50;;
6282;SDS011;3174;53.486;9.568;2023-05-10T07:18:01;3.23;;;2.40;;
6282;SDS011;3174;53.486;9.568;2023-05-10T07:20:31;3.40;;;2.60;;
6282;SDS011;3174;53.486;9.568;2023-05-10T07:22:58;7.20;;;2.60;;
6282;SDS011;3174;53.486;9.568;2023-05-10T07:25:28;3.70;;;3.07;;
6282;SDS011;3174;53.486;9.568;2023-05-10T07:27:57;4.17;;;2.60;;
6282;SDS011;3174;53.486;9.568;2023-05-10T07:30:25;3.67;;;2.87;;
6282;SDS011;3174;53.486;9.568;2023-05-10T07:32:53;6.07;;;2.67;;
6282;SDS011;3174;53.486;9.568;2023-05-10T07:35:21;4.67;;;2.80;;
6282;SDS011;3174;53.486;9.568;2023-05-10T07:37:49;6.47;;;2.87;;
6282;SDS011;3174;53.486;9.568;2023-05-10T07:40:20;5.03;;;2.80;;
6282;SDS011;3174;53.486;9.568;2023-05-10T07:42:48;5.50;;;2.90;;
6282;SDS011;3174;53.486;9.568;2023-05-10T07:45:17;4.00;;;3.10;;
6282;SDS011;3174;53.486;9.568;2023-05-10T07:47:45;3.10;;;2.80;;
6282;SDS011;3174;53.486;9.568;2023-05-10T07:50:13;7.23;;;3.27;;
6282;SDS011;3174;53.486;9.568;2023-05-10T07:52:41;6.63;;;3.53;;
6282;SDS011;3174;53.486;9.568;2023-05-10T07:55:09;4.60;;;3.10;;
6282;SDS011;3174;53.486;9.568;2023-05-10T07:57:37;3.60;;;3.07;;
6282;SDS011;3174;53.486;9.568;2023-05-10T08:00:06;5.23;;;3.60;;
6282;SDS011;3174;53.486;9.568;2023-05-10T08:02:36;5.13;;;3.17;;
6282;SDS011;3174;53.486;9.568;2023-05-10T08:05:04;4.80;;;3.10;;
6282;SDS011;3174;53.486;9.568;2023-05-10T08:07:33;3.90;;;3.00;;
6282;SDS011;3174;53.486;9.568;2023-05-10T08:10:01;4.37;;;3.27;;
6282;SDS011;3174;53.486;9.568;2023-05-10T08:12:29;4.67;;;3.30;;
6282;SDS011;3174;53.486;9.568;2023-05-10T08:14:57;3.77;;;3.10;;
6282;SDS011;3174;53.486;9.568;2023-05-10T08:17:25;4.43;;;3.10;;
6282;SDS011;3174;53.486;9.568;2023-05-10T08:19:55;7.50;;;3.80;;
6282;SDS011;3174;53.486;9.568;2023-05-10T08:22:23;5.70;;;3.40;;
6282;SDS011;3174;53.486;9.568;2023-05-10T08:24:51;4.83;;;3.60;;
6282;SDS011;3174;53.486;9.568;2023-05-10T08:27:19;4.20;;;3.13;;
6282;SDS011;3174;53.486;9.568;2023-05-10T08:29:47;7.00;;;3.67;;
6282;SDS011;3174;53.486;9.568;2023-05-10T08:32:16;6.13;;;3.60;;
6282;SDS011;3174;53.486;9.568;2023-05-10T08:34:44;6.43;;;3.60;;
6282;SDS011;3174;53.486;9.568;2023-05-10T08:37:13;4.27;;;3.40;;
6282;SDS011;3174;53.486;9.568;2023-05-10T08:39:41;3.47;;;3.17;;
6282;SDS011;3174;53.486;9.568;2023-05-10T08:42:09;7.53;;;3.70;;
6282;SDS011;3174;53.486;9.568;2023-05-10T08:44:37;5.63;;;3.63;;
6282;SDS011;3174;53.486;9.568;2023-05-10T08:47:06;5.10;;;3.77;;
6282;SDS011;3174;53.486;9.568;2023-05-10T08:49:34;5.60;;;4.33;;
6282;SDS011;3174;53.486;9.568;2023-05-10T08:52:03;7.70;;;3.87;;
6282;SDS011;3174;53.486;9.568;2023-05-10T08:54:33;6.73;;;3.50;;
6282;SDS011;3174;53.486;9.568;2023-05-10T08:57:01;7.37;;;4.30;;
6282;SDS011;3174;53.486;9.568;2023-05-10T08:59:29;8.90;;;4.27;;
6282;SDS011;3174;53.486;9.568;2023-05-10T09:01:58;6.70;;;4.63;;
6282;SDS011;3174;53.486;9.568;2023-05-10T09:04:26;8.60;;;5.17;;
6282;SDS011;3174;53.486;9.568;2023-05-10T09:06:55;6.90;;;4.30;;
6282;SDS011;3174;53.486;9.568;2023-05-10T09:09:23;4.03;;;3.27;;
6282;SDS011;3174;53.486;9.568;2023-05-10T09:11:53;8.03;;;4.53;;
6282;SDS011;3174;53.486;9.568;2023-05-10T09:14:21;8.73;;;4.10;;
6282;SDS011;3174;53.486;9.568;2023-05-10T09:16:51;5.30;;;3.50;;
6282;SDS011;3174;53.486;9.568;2023-05-10T09:19:20;6.10;;;4.33;;
6282;SDS011;3174;53.486;9.568;2023-05-10T09:21:48;4.10;;;3.17;;
6282;SDS011;3174;53.486;9.568;2023-05-10T09:24:16;7.40;;;4.20;;
6282;SDS011;3174;53.486;9.568;2023-05-10T09:26:48;6.20;;;4.47;;
6282;SDS011;3174;53.486;9.568;2023-05-10T09:29:17;7.77;;;4.33;;
6282;SDS011;3174;53.486;9.568;2023-05-10T09:31:46;6.27;;;4.77;;
6282;SDS011;3174;53.486;9.568;2023-05-10T09:34:17;5.67;;;3.83;;
6282;SDS011;3174;53.486;9.568;2023-05-10T09:36:50;6.47;;;4.33;;
6282;SDS011;3174;53.486;9.568;2023-05-10T09:39:19;6.00;;;4.50;;
6282;SDS011;3174;53.486;9.568;2023-05-10T09:41:47;6.43;;;4.67;;
6282;SDS011;3174;53.486;9.568;2023-05-10T09:44:20;6.97;;;4.70;;
6282;SDS011;3174;53.486;9.568;2023-05-10T09:46:50;6.03;;;4.00;;
6282;SDS011;3174;53.486;9.568;2023-05-10T09:49:19;7.27;;;4.53;;
6282;SDS011;3174;53.486;9.568;2023-05-10T09:51:47;6.00;;;3.77;;
6282;SDS011;3174;53.486;9.568;2023-05-10T09:54:15;6.63;;;4.13;;
6282;SDS011;3174;53.486;9.568;2023-05-10T09:56:43;6.03;;;4.03;;
6282;SDS011;3174;53.486;9.568;2023-05-10T09:59:11;15.90;;;5.53;;
6282;SDS011;3174;53.486;9.568;2023-05-10T10:01:41;7.30;;;5.43;;
6282;SDS011;3174;53.486;9.568;2023-05-10T10:04:09;5.57;;;4.57;;
6282;SDS011;3174;53.486;9.568;2023-05-10T10:06:38;6.40;;;4.83;;
6282;SDS011;3174;53.486;9.568;2023-05-10T10:09:06;8.47;;;5.13;;
6282;SDS011;3174;53.486;9.568;2023-05-10T10:11:34;6.97;;;4.53;;
6282;SDS011;3174;53.486;9.568;2023-05-10T10:14:03;7.13;;;5.63;;
6282;SDS011;3174;53.486;9.568;2023-05-10T10:16:31;7.17;;;4.90;;
6282;SDS011;3174;53.486;9.568;2023-05-10T10:19:01;6.53;;;4.37;;
6282;SDS011;3174;53.486;9.568;2023-05-10T10:21:29;8.77;;;5.27;;
6282;SDS011;3174;53.486;9.568;2023-05-10T10:23:57;6.93;;;4.70;;
6282;SDS011;3174;53.486;9.568;2023-05-10T10:26:25;7.40;;;5.23;;
6282;SDS011;3174;53.486;9.568;2023-05-10T10:28:56;8.63;;;4.70;;
6282;SDS011;3174;53.486;9.568;2023-05-10T10:31:32;8.63;;;5.97;;
6282;SDS011;3174;53.486;9.568;2023-05-10T10:34:06;9.80;;;5.47;;
6282;SDS011;3174;53.486;9.568;2023-05-10T10:36:42;8.20;;;5.53;;
6282;SDS011;3174;53.486;9.568;2023-05-10T10:39:12;11.33;;;5.50;;
6282;SDS011;3174;53.486;9.568;2023-05-10T10:41:40;7.70;;;5.63;;
6282;SDS011;3174;53.486;9.568;2023-05-10T10:44:23;6.57;;;4.83;;
6282;SDS011;3174;53.486;9.568;2023-05-10T10:47:02;5.50;;;4.47;;
6282;SDS011;3174;53.486;9.568;2023-05-10T10:49:42;6.63;;;4.40;;
6282;SDS011;3174;53.486;9.568;2023-05-10T10:52:21;7.00;;;5.40;;
6282;SDS011;3174;53.486;9.568;2023-05-10T10:54:54;7.67;;;4.80;;
6282;SDS011;3174;53.486;9.568;2023-05-10T10:57:26;7.77;;;5.33;;
6282;SDS011;3174;53.486;9.568;2023-05-10T11:00:17;6.13;;;4.57;;
6282;SDS011;3174;53.486;9.568;2023-05-10T11:02:47;10.03;;;5.50;;
6282;SDS011;3174;53.486;9.568;2023-05-10T11:05:33;5.70;;;5.10;;
6282;SDS011;3174;53.486;9.568;2023-05-10T11:08:10;6.57;;;4.63;;
6282;SDS011;3174;53.486;9.568;2023-05-10T11:10:52;7.17;;;5.37;;
6282;SDS011;3174;53.486;9.568;2023-05-10T11:13:31;7.53;;;5.57;;
6282;SDS011;3174;53.486;9.568;2023-05-10T11:16:09;6.23;;;4.70;;
6282;SDS011;3174;53.486;9.568;2023-05-10T11:18:38;6.00;;;4.23;;
6282;SDS011;3174;53.486;9.568;2023-05-10T11:21:09;6.33;;;4.93;;
6282;SDS011;3174;53.486;9.568;2023-05-10T11:23:50;7.20;;;5.40;;
6282;SDS011;3174;53.486;9.568;2023-05-10T11:26:22;7.60;;;5.63;;
6282;SDS011;3174;53.486;9.568;2023-05-10T11:28:52;5.87;;;4.80;;
6282;SDS011;3174;53.486;9.568;2023-05-10T11:31:22;7.53;;;5.53;;
6282;SDS011;3174;53.486;9.568;2023-05-10T11:33:53;9.13;;;5.90;;
6282;SDS011;3174;53.486;9.568;2023-05-10T11:36:25;7.23;;;4.97;;
6282;SDS011;3174;53.486;9.568;2023-05-10T11:38:54;8.80;;;5.77;;
6282;SDS011;3174;53.486;9.568;2023-05-10T11:41:23;7.87;;;5.90;;
6282;SDS011;3174;53.486;9.568;2023-05-10T11:43:52;9.87;;;6.00;;
6282;SDS011;3174;53.486;9.568;2023-05-10T11:46:21;7.43;;;6.13;;
6282;SDS011;3174;53.486;9.568;2023-05-10T11:48:51;8.30;;;5.80;;
6282;SDS011;3174;53.486;9.568;2023-05-10T11:51:20;8.57;;;6.50;;
6282;SDS011;3174;53.486;9.568;2023-05-10T11:53:50;7.37;;;4.87;;
6282;SDS011;3174;53.486;9.568;2023-05-10T11:56:20;9.17;;;6.43;;
6282;SDS011;3174;53.486;9.568;2023-05-10T11:58:52;8.70;;;5.90;;
6282;SDS011;3174;53.486;9.568;2023-05-10T12:01:20;6.53;;;4.73;;
6282;SDS011;3174;53.486;9.568;2023-05-10T12:03:49;5.10;;;4.07;;
6282;SDS011;3174;53.486;9.568;2023-05-10T12:06:18;6.80;;;5.47;;
6282;SDS011;3174;53.486;9.568;2023-05-10T12:08:47;4.50;;;3.67;;
6282;SDS011;3174;53.486;9.568;2023-05-10T12:11:20;4.30;;;3.67;;
6282;SDS011;3174;53.486;9.568;2023-05-10T12:13:52;4.70;;;3.87;;
6282;SDS011;3174;53.486;9.568;2023-05-10T12:16:21;6.07;;;4.73;;
6282;SDS011;3174;53.486;9.568;2023-05-10T12:18:50;5.03;;;4.03;;
6282;SDS011;3174;53.486;9.568;2023-05-10T12:21:18;7.40;;;5.47;;
6282;SDS011;3174;53.486;9.568;2023-05-10T12:23:48;5.77;;;4.80;;
6282;SDS011;3174;53.486;9.568;2023-05-10T12:26:17;7.77;;;5.80;;
6282;SDS011;3174;53.486;9.568;2023-05-10T12:28:47;8.97;;;6.43;;
6282;SDS011;3174;53.486;9.568;2023-05-10T12:31:15;8.53;;;5.17;;
6282;SDS011;3174;53.486;9.568;2023-05-10T12:33:43;7.43;;;5.73;;
6282;SDS011;3174;53.486;9.568;2023-05-10T12:36:13;8.87;;;6.67;;
6282;SDS011;3174;53.486;9.568;2023-05-10T12:38:42;8.90;;;6.20;;
6282;SDS011;3174;53.486;9.568;2023-05-10T12:41:14;7.40;;;5.13;;
6282;SDS011;3174;53.486;9.568;2023-05-10T12:43:44;4.73;;;3.93;;
6282;SDS011;3174;53.486;9.568;2023-05-10T12:46:13;6.77;;;5.00;;
6282;SDS011;3174;53.486;9.568;2023-05-10T12:48:42;7.73;;;5.17;;
6282;SDS011;3174;53.486;9.568;2023-05-10T12:51:11;8.70;;;5.53;;
6282;SDS011;3174;53.486;9.568;2023-05-10T12:53:42;9.00;;;6.30;;
6282;SDS011;3174;53.486;9.568;2023-05-10T12:56:14;9.00;;;5.70;;
6282;SDS011;3174;53.486;9.568;2023-05-10T12:58:42;9.63;;;6.90;;
6282;SDS011;3174;53.486;9.568;2023-05-10T13:01:15;10.20;;;7.03;;
6282;SDS011;3174;53.486;9.568;2023-05-10T13:03:43;11.00;;;7.33;;
6282;SDS011;3174;53.486;9.568;2023-05-10T13:06:14;8.50;;;6.70;;
6282;SDS011;3174;53.486;9.568;2023-05-10T13:08:42;8.93;;;7.23;;
6282;SDS011;3174;53.486;9.568;2023-05-10T13:11:10;9.90;;;7.53;;
6282;SDS011;3174;53.486;9.568;2023-05-10T13:13:42;8.87;;;7.17;;
6282;SDS011;3174;53.486;9.568;2023-05-10T13:16:10;10.93;;;7.60;;
6282;SDS011;3174;53.486;9.568;2023-05-10T13:18:40;7.97;;;6.90;;
6282;SDS011;3174;53.486;9.568;2023-05-10T13:21:08;8.50;;;7.60;;
6282;SDS011;3174;53.486;9.568;2023-05-10T13:23:37;5.27;;;4.57;;
6282;SDS011;3174;53.486;9.568;2023-05-10T13:26:05;6.23;;;5.13;;
6282;SDS011;3174;53.486;9.568;2023-05-10T13:28:33;8.40;;;6.73;;
6282;SDS011;3174;53.486;9.568;2023-05-10T13:31:01;7.27;;;5.40;;
6282;SDS011;3174;53.486;9.568;2023-05-10T13:33:29;10.50;;;7.13;;
6282;SDS011;3174;53.486;9.568;2023-05-10T13:35:58;6.13;;;4.53;;
6282;SDS011;3174;53.486;9.568;2023-05-10T13:38:26;10.23;;;6.60;;
6282;SDS011;3174;53.486;9.568;2023-05-10T13:40:54;8.80;;;7.27;;
6282;SDS011;3174;53.486;9.568;2023-05-10T13:43:23;8.53;;;7.00;;
6282;SDS011;3174;53.486;9.568;2023-05-10T13:45:51;8.73;;;7.03;;
6282;SDS011;3174;53.486;9.568;2023-05-10T13:48:19;5.53;;;4.63;;
6282;SDS011;3174;53.486;9.568;2023-05-10T13:50:47;6.60;;;4.73;;
6282;SDS011;3174;53.486;9.568;2023-05-10T13:53:16;9.60;;;7.03;;
6282;SDS011;3174;53.486;9.568;2023-05-10T13:55:44;6.10;;;4.80;;
6282;SDS011;3174;53.486;9.568;2023-05-10T13:58:12;11.60;;;5.70;;
6282;SDS011;3174;53.486;9.568;2023-05-10T14:00:40;10.37;;;6.20;;
6282;SDS011;3174;53.486;9.568;2023-05-10T14:03:08;8.10;;;6.57;;
6282;SDS011;3174;53.486;9.568;2023-05-10T14:05:37;7.37;;;5.53;;
6282;SDS011;3174;53.486;9.568;2023-05-10T14:08:06;8.83;;;6.67;;
6282;SDS011;3174;53.486;9.568;2023-05-10T14:10:37;8.17;;;5.87;;
6282;SDS011;3174;53.486;9.568;2023-05-10T14:13:05;4.53;;;3.67;;
6282;SDS011;3174;53.486;9.568;2023-05-10T14:15:34;6.50;;;4.23;;
6282;SDS011;3174;53.486;9.568;2023-05-10T14:18:02;6.40;;;5.53;;
6282;SDS011;3174;53.486;9.568;2023-05-10T14:20:30;7.13;;;5.40;;
6282;SDS011;3174;53.486;9.568;2023-05-10T14:22:59;6.43;;;5.20;;
6282;SDS011;3174;53.486;9.568;2023-05-10T14:25:27;7.33;;;5.57;;
6282;SDS011;3174;53.486;9.568;2023-05-10T14:27:57;5.60;;;4.77;;
6282;SDS011;3174;53.486;9.568;2023-05-10T14:30:25;7.33;;;5.47;;
6282;SDS011;3174;53.486;9.568;2023-05-10T14:32:55;7.17;;;5.77;;
6282;SDS011;3174;53.486;9.568;2023-05-10T14:35:24;7.70;;;4.67;;
6282;SDS011;3174;53.486;9.568;2023-05-10T14:37:52;9.80;;;5.43;;
6282;SDS011;3174;53.486;9.568;2023-05-10T14:40:20;7.70;;;5.80;;
6282;SDS011;3174;53.486;9.568;2023-05-10T14:42:49;6.90;;;5.30;;
6282;SDS011;3174;53.486;9.568;2023-05-10T14:45:20;7.03;;;5.47;;
6282;SDS011;3174;53.486;9.568;2023-05-10T14:47:49;6.67;;;5.23;;
6282;SDS011;3174;53.486;9.568;2023-05-10T14:50:17;9.07;;;6.30;;
6282;SDS011;3174;53.486;9.568;2023-05-10T14:53:01;6.23;;;4.80;;
6282;SDS011;3174;53.486;9.568;2023-05-10T14:55:29;4.40;;;3.70;;
6282;SDS011;3174;53.486;9.568;2023-05-10T14:57:57;5.20;;;3.40;;
6282;SDS011;3174;53.486;9.568;2023-05-10T15:00:28;4.23;;;3.30;;
6282;SDS011;3174;53.486;9.568;2023-05-10T15:02:57;4.87;;;4.07;;
6282;SDS011;3174;53.486;9.568;2023-05-10T15:05:28;5.20;;;2.70;;
6282;SDS011;3174;53.486;9.568;2023-05-10T15:07:56;3.53;;;2.60;;
6282;SDS011;3174;53.486;9.568;2023-05-10T15:10:24;4.00;;;2.93;;
6282;SDS011;3174;53.486;9.568;2023-05-10T15:12:52;4.03;;;2.87;;
6282;SDS011;3174;53.486;9.568;2023-05-10T15:15:20;5.47;;;3.87;;
6282;SDS011;3174;53.486;9.568;2023-05-10T15:17:49;3.00;;;2.70;;
6282;SDS011;3174;53.486;9.568;2023-05-10T15:20:17;2.63;;;2.43;;
6282;SDS011;3174;53.486;9.568;2023-05-10T15:22:45;3.37;;;2.90;;
6282;SDS011;3174;53.486;9.568;2023-05-10T15:25:13;3.03;;;2.50;;
6282;SDS011;3174;53.486;9.568;2023-05-10T15:27:42;2.60;;;2.00;;
6282;SDS011;3174;53.486;9.568;2023-05-10T15:30:11;3.63;;;2.50;;
6282;SDS011;3174;53.486;9.568;2023-05-10T15:32:39;3.80;;;2.93;;
6282;SDS011;3174;53.486;9.568;2023-05-10T15:35:08;3.03;;;2.50;;